Time;durP1;ratioP1;P1;durP2;ratioP2;P2;SDS_P1;SDS_P2;PMS_P1;PMS_P2;Temp;Humidity;BMP_temperature;BMP_pressure;BME280_temperature;BME280_humidity;BME280_pressure;Samples;Min_cycle;Max_cycle;Signal;HPM_P1;HPM_P2
2022/10/31 00:00:53;;;;;;;;;;;13.20;88.90;;;;;;5034010;28;19993;-88
2022/10/31 00:03:19;;;;;;;;;;;13.20;88.00;;;;;;5034300;28;19941;-88
2022/10/31 00:05:45;;;;;;;;;;;13.20;86.50;;;;;;5034238;28;19944;-88
2022/10/31 00:08:11;;;;;;;;;;;13.20;86.30;;;;;;5034158;28;20022;-88
2022/10/31 00:10:37;;;;;;;;;;;13.20;85.40;;;;;;5033863;28;20026;-88
2022/10/31 00:13:03;;;;;;;;;;;13.20;85.10;;;;;;5034274;28;19942;-88
2022/10/31 00:15:28;;;;;;;;;;;13.20;85.10;;;;;;5034041;28;20313;-88
2022/10/31 00:17:54;;;;;;;;;;;13.10;85.30;;;;;;5033998;28;20378;-88
2022/10/31 00:20:19;;;;;;;;;;;13.00;85.50;;;;;;5033599;28;20489;-88
2022/10/31 00:22:45;;;;;;;;;;;13.00;85.50;;;;;;5033742;28;20031;-88
2022/10/31 00:25:11;;;;;;;;;;;12.90;85.20;;;;;;5033860;28;19984;-87
2022/10/31 00:27:36;;;;;;;;;;;12.90;85.40;;;;;;5033759;28;20355;-88
2022/10/31 00:30:02;;;;;;;;;;;12.80;86.80;;;;;;5033548;28;19977;-88
2022/10/31 00:32:28;;;;;;;;;;;12.70;87.60;;;;;;5033651;28;19951;-88
2022/10/31 00:34:54;;;;;;;;;;;12.60;88.90;;;;;;5033310;28;19956;-88
2022/10/31 00:37:20;;;;;;;;;;;12.60;88.90;;;;;;5033686;28;19946;-88
2022/10/31 00:39:47;;;;;;;;;;;12.60;89.00;;;;;;5033579;28;19947;-87
2022/10/31 00:42:12;;;;;;;;;;;12.60;89.50;;;;;;5033320;28;19946;-88
2022/10/31 00:44:38;;;;;;;;;;;12.60;89.70;;;;;;5033523;28;19955;-88
2022/10/31 00:47:03;;;;;;;;;;;12.50;90.00;;;;;;5033440;28;19960;-87
2022/10/31 00:49:29;;;;;;;;;;;12.40;90.00;;;;;;5033424;28;20315;-88
2022/10/31 00:51:54;;;;;;;;;;;12.40;90.30;;;;;;5032804;28;19966;-88
2022/10/31 00:54:20;;;;;;;;;;;12.40;90.60;;;;;;5033324;28;19962;-88
2022/10/31 00:56:46;;;;;;;;;;;12.40;91.30;;;;;;5033318;28;19972;-88
2022/10/31 00:59:11;;;;;;;;;;;12.30;91.60;;;;;;5033318;28;19939;-88
2022/10/31 01:01:37;;;;;;;;;;;12.40;91.80;;;;;;5033005;28;19944;-88
2022/10/31 01:04:02;;;;;;;;;;;12.40;92.00;;;;;;5033102;28;19960;-88
2022/10/31 01:06:28;;;;;;;;;;;12.40;91.90;;;;;;5033173;28;19950;-88
2022/10/31 01:08:53;;;;;;;;;;;12.50;91.70;;;;;;5033162;28;19943;-88
2022/10/31 01:11:20;;;;;;;;;;;12.50;91.50;;;;;;5031601;28;20034;-88
2022/10/31 01:13:46;;;;;;;;;;;12.50;91.40;;;;;;5033122;28;19960;-88
2022/10/31 01:16:13;;;;;;;;;;;12.60;91.30;;;;;;5033130;28;19963;-88
2022/10/31 01:18:39;;;;;;;;;;;12.50;91.30;;;;;;5033116;28;19945;-88
2022/10/31 01:21:06;;;;;;;;;;;12.40;91.80;;;;;;5032915;28;19948;-87
2022/10/31 01:23:32;;;;;;;;;;;12.40;91.70;;;;;;5033060;28;19961;-88
2022/10/31 01:26:11;;;;;;;;;;;12.30;91.20;;;;;;5033026;28;19940;-88
2022/10/31 01:28:38;;;;;;;;;;;12.30;91.30;;;;;;5032946;28;19934;-88
2022/10/31 01:31:07;;;;;;;;;;;12.30;91.30;;;;;;5031479;28;19954;-88
2022/10/31 01:33:33;;;;;;;;;;;12.40;90.70;;;;;;5032878;28;20580;-88
2022/10/31 01:35:59;;;;;;;;;;;12.40;90.20;;;;;;5032921;28;19937;-88
2022/10/31 01:38:25;;;;;;;;;;;12.40;89.50;;;;;;5032952;28;19944;-88
2022/10/31 01:40:50;;;;;;;;;;;12.40;89.70;;;;;;5032688;28;19990;-88
2022/10/31 01:43:16;;;;;;;;;;;12.40;89.50;;;;;;5032920;28;20454;-88
2022/10/31 01:45:43;;;;;;;;;;;12.50;89.00;;;;;;5032856;28;19941;-87
2022/10/31 01:48:13;;;;;;;;;;;12.50;88.60;;;;;;5032872;28;20039;-88
2022/10/31 01:50:39;;;;;;;;;;;12.40;87.60;;;;;;5031322;28;19948;-88
2022/10/31 01:53:05;;;;;;;;;;;12.40;87.00;;;;;;5034418;28;19981;-88
2022/10/31 01:55:36;;;;;;;;;;;12.40;87.20;;;;;;5036688;28;19941;-88
2022/10/31 01:58:07;;;;;;;;;;;12.40;87.70;;;;;;5036634;28;19983;-88
2022/10/31 02:00:32;;;;;;;;;;;12.40;87.30;;;;;;5036365;28;19955;-88
2022/10/31 02:02:59;;;;;;;;;;;12.40;87.90;;;;;;5036567;28;20033;-88
2022/10/31 02:05:27;;;;;;;;;;;12.40;87.80;;;;;;5036512;28;19945;-88
2022/10/31 02:07:56;;;;;;;;;;;12.40;87.50;;;;;;5036493;28;19961;-88
2022/10/31 02:10:22;;;;;;;;;;;12.40;87.80;;;;;;5036182;28;19943;-87
2022/10/31 02:12:49;;;;;;;;;;;12.40;87.70;;;;;;5036208;28;19991;-88
2022/10/31 02:15:15;;;;;;;;;;;12.50;88.10;;;;;;5036304;28;20009;-88
2022/10/31 02:17:40;;;;;;;;;;;12.40;88.00;;;;;;5036270;28;20422;-88
2022/10/31 02:20:12;;;;;;;;;;;12.40;87.70;;;;;;5035912;28;19947;-88
2022/10/31 02:22:56;;;;;;;;;;;12.40;87.90;;;;;;5036391;28;19950;-88
2022/10/31 02:25:40;;;;;;;;;;;12.40;87.30;;;;;;5036122;28;19944;-88
2022/10/31 02:28:12;;;;;;;;;;;12.40;87.30;;;;;;5036305;28;19954;-88
2022/10/31 02:31:00;;;;;;;;;;;12.40;87.20;;;;;;5035356;28;20067;-88
2022/10/31 02:33:30;;;;;;;;;;;12.40;87.30;;;;;;5016548;28;19971;-88
2022/10/31 02:36:02;;;;;;;;;;;12.40;88.60;;;;;;5035927;28;19962;-88
2022/10/31 02:38:50;;;;;;;;;;;12.40;88.60;;;;;;5035618;28;20414;-88
2022/10/31 02:41:31;;;;;;;;;;;12.40;87.60;;;;;;5035833;28;19975;-88
2022/10/31 02:43:56;;;;;;;;;;;12.40;87.60;;;;;;5035819;28;19937;-88
2022/10/31 02:46:24;;;;;;;;;;;12.40;87.70;;;;;;5035728;28;19945;-88
2022/10/31 02:48:54;;;;;;;;;;;12.30;86.50;;;;;;5035446;28;20024;-88
2022/10/31 02:51:19;;;;;;;;;;;12.40;86.60;;;;;;5035519;28;19961;-88
2022/10/31 02:53:45;;;;;;;;;;;12.40;86.10;;;;;;5035431;28;19983;-87
2022/10/31 02:56:10;;;;;;;;;;;12.40;86.80;;;;;;5035817;28;20302;-88
2022/10/31 02:58:37;;;;;;;;;;;12.40;87.10;;;;;;5035216;28;20037;-88
2022/10/31 03:01:06;;;;;;;;;;;12.40;87.20;;;;;;5035455;28;19952;-88
2022/10/31 03:03:41;;;;;;;;;;;12.40;87.20;;;;;;5035323;28;19943;-88
2022/10/31 03:06:25;;;;;;;;;;;12.30;86.50;;;;;;5035394;28;19995;-88
2022/10/31 03:08:57;;;;;;;;;;;12.30;86.00;;;;;;5035052;28;20413;-88
2022/10/31 03:11:24;;;;;;;;;;;12.10;84.90;;;;;;5035282;28;19947;-88
2022/10/31 03:13:52;;;;;;;;;;;12.10;85.00;;;;;;5035458;28;19961;-88
2022/10/31 03:16:21;;;;;;;;;;;12.10;85.30;;;;;;5035229;28;19944;-88
2022/10/31 03:18:59;;;;;;;;;;;12.10;85.80;;;;;;5034873;28;19971;-88
2022/10/31 03:21:25;;;;;;;;;;;11.90;86.50;;;;;;5035073;28;20296;-88
2022/10/31 03:23:51;;;;;;;;;;;11.80;86.80;;;;;;5034998;28;19991;-88
2022/10/31 03:26:17;;;;;;;;;;;11.70;87.60;;;;;;5034991;28;19941;-87
2022/10/31 03:28:48;;;;;;;;;;;11.60;88.40;;;;;;5034504;28;19985;-88
2022/10/31 03:31:16;;;;;;;;;;;11.50;88.00;;;;;;5034874;28;19983;-88
2022/10/31 03:33:42;;;;;;;;;;;11.60;88.10;;;;;;5034819;28;19991;-87
2022/10/31 03:36:10;;;;;;;;;;;11.70;88.10;;;;;;5034544;28;19986;-88
2022/10/31 03:38:35;;;;;;;;;;;11.80;88.10;;;;;;5034669;28;19991;-88
2022/10/31 03:41:02;;;;;;;;;;;11.90;88.30;;;;;;5034757;28;20376;-87
2022/10/31 03:43:30;;;;;;;;;;;11.80;88.20;;;;;;5034679;28;20043;-88
2022/10/31 03:45:55;;;;;;;;;;;11.70;88.10;;;;;;5034341;28;19941;-88
2022/10/31 03:48:22;;;;;;;;;;;11.70;87.90;;;;;;5034613;28;19998;-88
2022/10/31 03:50:52;;;;;;;;;;;11.80;88.00;;;;;;5034723;28;20027;-88
2022/10/31 03:53:36;;;;;;;;;;;11.90;88.50;;;;;;5034353;28;19972;-88
2022/10/31 03:56:06;;;;;;;;;;;11.90;88.40;;;;;;5034193;28;19987;-88
2022/10/31 03:58:37;;;;;;;;;;;12.00;88.30;;;;;;5034412;28;19987;-88
2022/10/31 04:01:03;;;;;;;;;;;11.90;88.10;;;;;;5034340;28;19940;-88
2022/10/31 04:03:31;;;;;;;;;;;11.90;87.70;;;;;;5034311;28;19948;-88
2022/10/31 04:06:00;;;;;;;;;;;11.80;87.60;;;;;;5034033;28;20392;-88
2022/10/31 04:08:27;;;;;;;;;;;11.80;87.00;;;;;;5034251;28;19945;-88
2022/10/31 04:10:54;;;;;;;;;;;11.80;86.30;;;;;;5034120;28;19947;-88
2022/10/31 04:13:22;;;;;;;;;;;11.70;85.90;;;;;;5034050;28;19978;-88
2022/10/31 04:15:49;;;;;;;;;;;11.80;86.10;;;;;;5033521;28;19947;-88
2022/10/31 04:18:15;;;;;;;;;;;11.80;86.50;;;;;;5033439;28;19941;-88
2022/10/31 04:20:41;;;;;;;;;;;11.80;88.40;;;;;;5033957;28;19941;-88
2022/10/31 04:23:20;;;;;;;;;;;11.70;90.20;;;;;;5033910;28;19941;-88
2022/10/31 04:25:45;;;;;;;;;;;11.40;88.60;;;;;;5033697;28;19944;-87
2022/10/31 04:28:11;;;;;;;;;;;11.30;89.30;;;;;;5033804;28;19949;-88
2022/10/31 04:30:37;;;;;;;;;;;11.30;90.70;;;;;;5033632;28;19974;-88
2022/10/31 04:33:02;;;;;;;;;;;11.30;91.40;;;;;;5033622;28;19939;-88
2022/10/31 04:35:28;;;;;;;;;;;11.20;90.60;;;;;;5033452;28;20040;-87
2022/10/31 04:37:53;;;;;;;;;;;11.10;90.30;;;;;;5033660;28;19973;-88
2022/10/31 04:40:19;;;;;;;;;;;11.10;90.50;;;;;;5033584;28;19947;-87
2022/10/31 04:42:44;;;;;;;;;;;11.00;90.60;;;;;;5033582;28;19947;-88
2022/10/31 04:45:10;;;;;;;;;;;10.90;91.50;;;;;;5033307;28;19940;-87
2022/10/31 04:47:35;;;;;;;;;;;11.00;91.90;;;;;;5033511;28;19995;-88
2022/10/31 04:50:01;;;;;;;;;;;11.00;92.40;;;;;;5033426;28;19944;-88
2022/10/31 04:52:26;;;;;;;;;;;10.90;92.80;;;;;;5033285;28;20011;-87
2022/10/31 04:54:52;;;;;;;;;;;10.90;92.40;;;;;;5033318;28;19957;-87
2022/10/31 04:57:18;;;;;;;;;;;10.90;92.10;;;;;;5033125;28;19956;-88
2022/10/31 04:59:43;;;;;;;;;;;10.80;91.40;;;;;;5033289;28;20458;-88
2022/10/31 05:02:09;;;;;;;;;;;10.80;90.80;;;;;;5033261;28;19964;-87
2022/10/31 05:04:34;;;;;;;;;;;10.80;91.20;;;;;;5033281;28;19986;-88
2022/10/31 05:07:00;;;;;;;;;;;10.80;90.90;;;;;;5032831;28;20311;-87
2022/10/31 05:09:25;;;;;;;;;;;10.80;90.90;;;;;;5033173;28;19984;-87
2022/10/31 05:11:51;;;;;;;;;;;10.80;90.90;;;;;;5033145;28;19988;-87
2022/10/31 05:14:16;;;;;;;;;;;10.80;90.90;;;;;;5033084;28;19959;-87
2022/10/31 05:16:42;;;;;;;;;;;10.80;91.40;;;;;;5032702;28;19993;-87
2022/10/31 05:19:07;;;;;;;;;;;10.70;91.40;;;;;;5033039;28;20402;-87
2022/10/31 05:21:33;;;;;;;;;;;10.70;93.00;;;;;;5033037;28;19945;-87
2022/10/31 05:23:58;;;;;;;;;;;10.80;92.40;;;;;;5033097;28;19948;-87
2022/10/31 05:26:24;;;;;;;;;;;10.80;92.00;;;;;;5032852;28;20007;-87
2022/10/31 05:28:49;;;;;;;;;;;10.70;91.60;;;;;;5036095;28;19940;-87
2022/10/31 05:31:15;;;;;;;;;;;10.80;92.10;;;;;;5037167;28;20005;-87
2022/10/31 05:33:40;;;;;;;;;;;10.80;92.30;;;;;;5037010;28;19962;-87
2022/10/31 05:36:06;;;;;;;;;;;10.90;92.20;;;;;;5036792;28;19945;-87
2022/10/31 05:38:32;;;;;;;;;;;10.80;92.00;;;;;;5036964;28;19951;-86
2022/10/31 05:40:59;;;;;;;;;;;10.70;91.60;;;;;;5036972;28;20428;-87
2022/10/31 05:43:25;;;;;;;;;;;10.70;91.50;;;;;;5036896;28;20426;-88
2022/10/31 05:45:56;;;;;;;;;;;10.80;91.20;;;;;;5036576;28;19945;-87
2022/10/31 05:48:22;;;;;;;;;;;10.80;90.90;;;;;;5036872;28;19938;-87
2022/10/31 05:50:48;;;;;;;;;;;10.80;90.90;;;;;;5036712;28;20055;-87
2022/10/31 05:53:14;;;;;;;;;;;10.90;91.50;;;;;;5036593;28;19937;-87
2022/10/31 05:55:40;;;;;;;;;;;11.00;91.50;;;;;;5036389;28;20032;-88
2022/10/31 05:58:06;;;;;;;;;;;11.10;91.60;;;;;;5036554;28;20059;-87
2022/10/31 06:00:34;;;;;;;;;;;11.30;91.50;;;;;;5035935;28;20411;-87
2022/10/31 06:03:00;;;;;;;;;;;11.30;91.00;;;;;;5036572;28;19981;-87
2022/10/31 06:05:26;;;;;;;;;;;11.20;90.60;;;;;;5036324;28;19939;-87
2022/10/31 06:07:51;;;;;;;;;;;11.10;89.90;;;;;;5036300;28;19954;-87
2022/10/31 06:10:19;;;;;;;;;;;11.00;89.90;;;;;;5036029;28;19943;-87
2022/10/31 06:12:44;;;;;;;;;;;11.00;90.00;;;;;;5036111;28;19998;-88
2022/10/31 06:15:10;;;;;;;;;;;11.10;90.00;;;;;;5036244;28;20437;-88
2022/10/31 06:17:36;;;;;;;;;;;11.20;89.90;;;;;;5036332;28;20417;-87
2022/10/31 06:20:02;;;;;;;;;;;11.40;89.90;;;;;;5035519;28;19943;-87
2022/10/31 06:22:28;;;;;;;;;;;11.70;89.70;;;;;;5035743;28;19949;-87
2022/10/31 06:24:53;;;;;;;;;;;11.90;88.80;;;;;;5035231;28;20426;-87
2022/10/31 06:27:19;;;;;;;;;;;11.90;87.40;;;;;;5035069;28;19952;-88
2022/10/31 06:29:47;;;;;;;;;;;12.10;87.60;;;;;;5076759;22;19974;-87
2022/10/31 06:32:13;;;;;;;;;;;12.10;87.10;;;;;;5092889;28;19953;-87
2022/10/31 06:34:38;;;;;;;;;;;12.20;87.10;;;;;;5094094;28;19958;-88
2022/10/31 06:37:05;;;;;;;;;;;12.20;86.80;;;;;;5093939;28;19944;-88
2022/10/31 06:39:31;;;;;;;;;;;12.20;86.40;;;;;;5090838;28;20076;-87
2022/10/31 06:41:56;;;;;;;;;;;12.10;86.50;;;;;;5088652;28;20037;-87
2022/10/31 06:44:22;;;;;;;;;;;12.10;86.50;;;;;;5095705;28;19994;-87
2022/10/31 06:46:47;;;;;;;;;;;12.10;86.50;;;;;;5092933;28;20053;-87
2022/10/31 06:49:13;;;;;;;;;;;12.30;86.80;;;;;;5075656;28;20425;-87
2022/10/31 06:51:39;;;;;;;;;;;12.50;86.90;;;;;;5084926;28;19959;-87
2022/10/31 06:54:04;;;;;;;;;;;12.60;86.90;;;;;;5095531;28;20055;-87
2022/10/31 06:56:30;;;;;;;;;;;12.70;86.80;;;;;;5093777;28;20031;-87
2022/10/31 06:58:55;;;;;;;;;;;12.80;86.30;;;;;;5093029;28;19945;-88
2022/10/31 07:01:21;;;;;;;;;;;12.90;86.30;;;;;;5091967;28;19952;-89
2022/10/31 07:03:46;;;;;;;;;;;12.90;85.80;;;;;;5092485;28;19951;-89
2022/10/31 07:06:12;;;;;;;;;;;12.90;86.20;;;;;;5093337;28;19985;-89
2022/10/31 07:08:37;;;;;;;;;;;12.80;86.50;;;;;;5102032;28;19946;-88
2022/10/31 07:11:03;;;;;;;;;;;12.90;87.00;;;;;;5091269;28;19941;-89
2022/10/31 07:13:28;;;;;;;;;;;12.80;87.40;;;;;;5085242;28;19964;-89
2022/10/31 07:15:55;;;;;;;;;;;12.90;87.60;;;;;;5085118;28;19989;-88
2022/10/31 07:18:21;;;;;;;;;;;13.10;87.80;;;;;;5093632;28;19954;-88
2022/10/31 07:20:47;;;;;;;;;;;13.30;88.10;;;;;;5094124;28;20034;-88
2022/10/31 07:23:12;;;;;;;;;;;13.40;87.70;;;;;;5101771;28;19937;-89
2022/10/31 07:25:39;;;;;;;;;;;13.50;87.80;;;;;;5092755;28;19944;-88
2022/10/31 07:28:04;;;;;;;;;;;13.60;88.10;;;;;;5086330;28;19945;-88
2022/10/31 07:30:30;;;;;;;;;;;13.80;87.60;;;;;;5090675;28;20446;-88
2022/10/31 07:32:55;;;;;;;;;;;14.10;86.80;;;;;;5089243;28;19946;-88
2022/10/31 07:35:22;;;;;;;;;;;14.40;85.70;;;;;;5092041;28;19969;-87
2022/10/31 07:37:48;;;;;;;;;;;14.70;84.50;;;;;;5093228;28;19943;-88
2022/10/31 07:40:13;;;;;;;;;;;14.90;83.30;;;;;;5095149;28;19945;-88
2022/10/31 07:42:40;;;;;;;;;;;15.00;83.10;;;;;;5090603;28;20326;-88
2022/10/31 07:45:06;;;;;;;;;;;15.10;82.80;;;;;;5092777;28;19943;-88
2022/10/31 07:47:41;;;;;;;;;;;15.40;80.90;;;;;;5094122;28;20512;-88
2022/10/31 07:50:08;;;;;;;;;;;15.60;79.70;;;;;;5092382;28;19984;-89
2022/10/31 07:52:33;;;;;;;;;;;15.70;80.20;;;;;;5096491;28;20062;-89
2022/10/31 07:54:59;;;;;;;;;;;15.90;79.20;;;;;;5093474;28;20101;-89
2022/10/31 07:57:24;;;;;;;;;;;15.80;80.00;;;;;;5095824;28;20336;-89
2022/10/31 07:59:50;;;;;;;;;;;15.80;79.80;;;;;;5093568;28;19947;-88
2022/10/31 08:02:16;;;;;;;;;;;15.80;80.00;;;;;;5093022;28;20355;-88
2022/10/31 08:04:41;;;;;;;;;;;15.80;81.30;;;;;;5092497;28;20356;-89
2022/10/31 08:07:07;;;;;;;;;;;15.80;80.80;;;;;;5093009;28;19942;-89
2022/10/31 08:09:32;;;;;;;;;;;15.80;80.60;;;;;;5091359;28;20316;-89
2022/10/31 08:11:58;;;;;;;;;;;15.80;79.90;;;;;;5093252;28;20021;-89
2022/10/31 08:14:23;;;;;;;;;;;15.90;79.90;;;;;;5092539;28;20328;-89
2022/10/31 08:16:49;;;;;;;;;;;16.00;79.80;;;;;;5090259;28;19985;-89
2022/10/31 08:19:14;;;;;;;;;;;16.10;79.20;;;;;;5088124;28;19995;-88
2022/10/31 08:21:40;;;;;;;;;;;16.20;79.80;;;;;;5093253;28;19955;-89
2022/10/31 08:24:05;;;;;;;;;;;16.30;79.20;;;;;;5092051;28;19963;-88
2022/10/31 08:26:31;;;;;;;;;;;16.30;79.20;;;;;;5079988;28;19947;-89
2022/10/31 08:28:57;;;;;;;;;;;16.30;79.40;;;;;;5084053;28;19966;-89
2022/10/31 08:31:22;;;;;;;;;;;16.30;79.60;;;;;;5093933;28;19975;-89
2022/10/31 08:33:48;;;;;;;;;;;16.40;80.00;;;;;;5089129;28;19973;-89
2022/10/31 08:36:14;;;;;;;;;;;16.40;80.20;;;;;;5092917;28;19943;-89
2022/10/31 08:38:39;;;;;;;;;;;16.50;80.10;;;;;;5091053;28;20357;-89
2022/10/31 08:41:05;;;;;;;;;;;16.50;80.40;;;;;;5093069;28;19949;-89
2022/10/31 08:43:30;;;;;;;;;;;16.40;79.30;;;;;;5092441;28;20355;-88
2022/10/31 08:45:56;;;;;;;;;;;16.50;79.70;;;;;;5093009;28;19948;-89
2022/10/31 08:48:21;;;;;;;;;;;16.60;79.30;;;;;;5090379;28;19948;-89
2022/10/31 08:50:47;;;;;;;;;;;16.60;78.20;;;;;;5091981;28;19946;-88
2022/10/31 08:53:13;;;;;;;;;;;16.60;76.30;;;;;;5091390;28;19945;-90
2022/10/31 08:55:39;;;;;;;;;;;16.70;77.40;;;;;;5093106;28;19950;-88
2022/10/31 08:58:06;;;;;;;;;;;16.80;76.80;;;;;;5093502;28;19948;-89
2022/10/31 09:00:32;;;;;;;;;;;16.90;76.90;;;;;;5091104;28;20319;-88
2022/10/31 09:02:59;;;;;;;;;;;17.00;76.80;;;;;;5083907;28;19945;-89
2022/10/31 09:05:25;;;;;;;;;;;17.10;76.70;;;;;;5093091;28;19950;-88
2022/10/31 09:07:51;;;;;;;;;;;17.10;76.00;;;;;;5093029;28;20045;-88
2022/10/31 09:10:16;;;;;;;;;;;17.20;76.00;;;;;;5093309;28;19979;-89
2022/10/31 09:12:42;;;;;;;;;;;17.30;76.90;;;;;;5092872;28;20293;-88
2022/10/31 09:15:08;;;;;;;;;;;17.30;76.20;;;;;;5092448;28;20372;-88
2022/10/31 09:17:33;;;;;;;;;;;17.30;77.10;;;;;;5092653;28;19953;-88
2022/10/31 09:19:59;;;;;;;;;;;17.40;76.70;;;;;;5091543;28;19950;-88
2022/10/31 09:22:24;;;;;;;;;;;17.50;77.10;;;;;;5091551;28;20297;-89
2022/10/31 09:24:50;;;;;;;;;;;17.60;76.70;;;;;;5090651;28;20297;-88
2022/10/31 09:27:15;;;;;;;;;;;17.60;76.70;;;;;;5091443;28;19946;-89
2022/10/31 09:29:41;;;;;;;;;;;17.70;76.60;;;;;;5090484;28;19973;-89
2022/10/31 09:32:06;;;;;;;;;;;17.80;75.70;;;;;;5090433;28;20674;-89
2022/10/31 09:34:32;;;;;;;;;;;17.90;75.60;;;;;;5089579;28;21148;-88
2022/10/31 09:36:58;;;;;;;;;;;17.90;75.80;;;;;;5091715;28;20404;-89
2022/10/31 09:39:23;;;;;;;;;;;17.90;76.10;;;;;;5092293;28;20357;-89
2022/10/31 09:41:55;;;;;;;;;;;18.00;76.50;;;;;;5089583;28;20616;-89
2022/10/31 09:44:36;;;;;;;;;;;18.00;76.00;;;;;;5090280;28;19993;-89
2022/10/31 09:47:12;;;;;;;;;;;18.10;76.70;;;;;;5090308;28;19973;-89
2022/10/31 09:49:38;;;;;;;;;;;18.40;75.80;;;;;;5085320;28;20005;-89
2022/10/31 09:52:17;;;;;;;;;;;18.60;75.40;;;;;;5087627;28;20446;-89
2022/10/31 09:54:52;;;;;;;;;;;18.80;74.30;;;;;;5087136;28;20079;-89
2022/10/31 09:57:22;;;;;;;;;;;18.90;74.30;;;;;;5090672;28;19943;-89
2022/10/31 09:59:49;;;;;;;;;;;19.30;72.50;;;;;;5090776;28;19945;-89
2022/10/31 10:02:14;;;;;;;;;;;19.50;70.70;;;;;;5090614;28;19942;-89
2022/10/31 10:05:04;;;;;;;;;;;19.60;71.60;;;;;;5087839;28;20355;-88
2022/10/31 10:07:30;;;;;;;;;;;19.80;70.70;;;;;;5081224;28;20435;-89
2022/10/31 10:09:56;;;;;;;;;;;19.90;69.70;;;;;;5098884;28;20470;-89
2022/10/31 10:12:40;;;;;;;;;;;20.10;69.00;;;;;;5093633;28;20041;-88
2022/10/31 10:15:24;;;;;;;;;;;20.30;67.40;;;;;;5094247;28;20062;-89
2022/10/31 10:17:49;;;;;;;;;;;20.60;66.70;;;;;;5096077;28;19951;-89
2022/10/31 10:20:15;;;;;;;;;;;20.60;65.70;;;;;;5097144;28;19950;-89
2022/10/31 10:22:40;;;;;;;;;;;20.70;65.70;;;;;;5089368;28;19951;-89
2022/10/31 10:25:25;;;;;;;;;;;20.80;66.00;;;;;;5093915;28;19951;-89
2022/10/31 10:27:56;;;;;;;;;;;20.80;64.60;;;;;;5093791;28;19939;-89
2022/10/31 10:30:23;;;;;;;;;;;20.90;64.00;;;;;;5092164;28;19975;-89
2022/10/31 10:33:12;;;;;;;;;;;20.90;64.50;;;;;;5093061;28;19950;-89
2022/10/31 10:36:06;;;;;;;;;;;21.00;65.00;;;;;;5088852;28;20079;-89
2022/10/31 10:38:49;;;;;;;;;;;21.00;63.80;;;;;;5075010;28;21128;-90
2022/10/31 10:41:18;;;;;;;;;;;21.20;64.80;;;;;;5093554;28;19945;-89
2022/10/31 10:43:44;;;;;;;;;;;21.30;62.80;;;;;;5085102;28;20158;-89
2022/10/31 10:49:17;;;;;;;;;;;21.40;61.60;;;;;;5093716;28;19994;-89
2022/10/31 10:51:46;;;;;;;;;;;21.50;62.10;;;;;;5095320;28;19957;-89
2022/10/31 10:54:30;;;;;;;;;;;21.70;61.90;;;;;;5094498;28;19958;-90
2022/10/31 10:56:58;;;;;;;;;;;22.00;59.80;;;;;;5100086;28;19945;-89
2022/10/31 10:59:24;;;;;;;;;;;22.40;59.10;;;;;;5094272;28;19995;-89
2022/10/31 11:01:51;;;;;;;;;;;22.80;56.80;;;;;;5093983;28;19943;-89
2022/10/31 11:04:35;;;;;;;;;;;23.00;55.90;;;;;;5091425;28;19971;-90
2022/10/31 11:07:03;;;;;;;;;;;23.30;55.50;;;;;;5090183;28;19952;-89
2022/10/31 11:09:28;;;;;;;;;;;23.60;55.20;;;;;;5094200;28;19945;-90
2022/10/31 11:11:55;;;;;;;;;;;23.80;54.20;;;;;;5095238;28;19957;-89
2022/10/31 11:14:21;;;;;;;;;;;23.90;54.10;;;;;;5095401;28;20002;-90
2022/10/31 11:16:50;;;;;;;;;;;24.20;53.70;;;;;;5095378;28;20381;-89
2022/10/31 11:19:20;;;;;;;;;;;24.40;52.70;;;;;;5095394;28;19938;-89
2022/10/31 11:21:46;;;;;;;;;;;24.30;50.90;;;;;;5095582;28;20070;-89
2022/10/31 11:24:22;;;;;;;;;;;24.30;50.50;;;;;;5095279;28;20604;-89
2022/10/31 11:26:48;;;;;;;;;;;24.50;52.00;;;;;;5095223;28;19939;-89
2022/10/31 11:29:15;;;;;;;;;;;24.50;51.50;;;;;;5094664;28;19978;-89
2022/10/31 11:31:41;;;;;;;;;;;24.50;52.70;;;;;;5095128;28;20026;-89
2022/10/31 11:34:13;;;;;;;;;;;24.60;51.40;;;;;;5095001;28;19965;-89
2022/10/31 11:36:41;;;;;;;;;;;24.80;51.70;;;;;;5094871;28;19950;-89
2022/10/31 11:39:15;;;;;;;;;;;25.30;50.30;;;;;;5094964;28;19994;-89
2022/10/31 11:41:42;;;;;;;;;;;25.70;49.70;;;;;;5094891;28;19978;-89
2022/10/31 11:44:16;;;;;;;;;;;26.00;49.40;;;;;;5095121;28;19946;-89
2022/10/31 11:46:52;;;;;;;;;;;25.90;49.40;;;;;;5094799;28;19940;-90
2022/10/31 11:49:20;;;;;;;;;;;26.40;48.00;;;;;;5094744;28;19987;-89
2022/10/31 11:51:54;;;;;;;;;;;26.90;47.80;;;;;;5094561;28;19951;-89
2022/10/31 11:54:31;;;;;;;;;;;27.50;46.40;;;;;;5094589;28;19964;-89
2022/10/31 11:56:57;;;;;;;;;;;27.70;45.90;;;;;;5093312;28;19943;-89
2022/10/31 11:59:30;;;;;;;;;;;27.70;45.00;;;;;;5094212;28;20455;-89
2022/10/31 12:01:57;;;;;;;;;;;27.90;44.10;;;;;;5094547;28;19942;-89
2022/10/31 12:04:43;;;;;;;;;;;28.10;44.70;;;;;;5094778;28;19944;-89
2022/10/31 12:07:08;;;;;;;;;;;27.60;44.80;;;;;;5094125;28;20383;-89
2022/10/31 12:09:35;;;;;;;;;;;27.10;45.50;;;;;;5094328;28;19997;-89
2022/10/31 12:12:04;;;;;;;;;;;27.10;45.70;;;;;;5094298;28;20084;-89
2022/10/31 12:14:41;;;;;;;;;;;27.20;45.90;;;;;;5094180;28;19960;-89
2022/10/31 12:17:13;;;;;;;;;;;27.10;45.80;;;;;;5094168;28;19949;-89
2022/10/31 12:19:47;;;;;;;;;;;27.40;46.30;;;;;;5093941;28;19981;-89
2022/10/31 12:22:13;;;;;;;;;;;27.40;45.50;;;;;;5093772;28;19936;-89
2022/10/31 12:24:39;;;;;;;;;;;27.60;45.50;;;;;;5094044;28;19947;-89
2022/10/31 12:27:21;;;;;;;;;;;27.60;44.50;;;;;;5093960;28;19941;-90
2022/10/31 12:30:09;;;;;;;;;;;27.90;44.90;;;;;;5086764;28;19984;-90
2022/10/31 12:32:48;;;;;;;;;;;27.90;44.70;;;;;;5073955;28;19981;-90
2022/10/31 12:35:30;;;;;;;;;;;27.80;45.20;;;;;;5091531;28;20064;-89
2022/10/31 12:38:04;;;;;;;;;;;27.80;45.10;;;;;;5089789;28;19955;-90
2022/10/31 12:40:30;;;;;;;;;;;28.00;44.20;;;;;;5095566;28;19950;-90
2022/10/31 12:43:07;;;;;;;;;;;28.30;44.10;;;;;;5087947;28;20317;-90
2022/10/31 12:45:41;;;;;;;;;;;28.40;44.30;;;;;;5090158;28;19947;-89
2022/10/31 12:48:13;;;;;;;;;;;28.30;44.80;;;;;;5086760;28;19941;-89
2022/10/31 12:50:50;;;;;;;;;;;28.40;44.40;;;;;;5088213;28;20019;-90
2022/10/31 12:53:18;;;;;;;;;;;28.60;44.00;;;;;;5089829;28;19997;-89
2022/10/31 12:56:03;;;;;;;;;;;28.70;44.60;;;;;;5088943;28;19956;-90
2022/10/31 12:58:33;;;;;;;;;;;28.40;44.20;;;;;;5085257;28;20005;-89
2022/10/31 13:01:13;;;;;;;;;;;28.30;44.40;;;;;;5089095;28;19987;-89
2022/10/31 13:03:39;;;;;;;;;;;28.40;43.70;;;;;;5088435;28;19946;-89
2022/10/31 13:06:09;;;;;;;;;;;28.20;44.40;;;;;;5088973;28;20502;-90
2022/10/31 13:08:34;;;;;;;;;;;28.30;44.50;;;;;;5086155;28;20050;-89
2022/10/31 13:11:10;;;;;;;;;;;28.10;45.20;;;;;;5088791;28;20043;-89
2022/10/31 13:13:39;;;;;;;;;;;28.30;45.20;;;;;;5089488;28;19944;-89
2022/10/31 13:16:15;;;;;;;;;;;28.50;45.40;;;;;;5093350;28;19940;-90
2022/10/31 13:18:47;;;;;;;;;;;28.50;45.00;;;;;;5089122;28;19946;-90
2022/10/31 13:21:45;;;;;;;;;;;28.50;45.10;;;;;;5087265;28;19945;-91
2022/10/31 13:24:13;;;;;;;;;;;28.90;44.60;;;;;;5044707;28;19949;-90
2022/10/31 13:26:59;;;;;;;;;;;28.80;43.70;;;;;;5092315;28;19950;-90
2022/10/31 13:29:38;;;;;;;;;;;29.00;44.40;;;;;;5087411;28;20006;-90
2022/10/31 13:32:05;;;;;;;;;;;29.00;43.40;;;;;;5088785;28;19945;-90
2022/10/31 13:34:38;;;;;;;;;;;29.50;42.80;;;;;;5090913;28;19967;-90
2022/10/31 13:37:06;;;;;;;;;;;29.70;42.60;;;;;;5092520;28;20044;-90
2022/10/31 13:39:41;;;;;;;;;;;29.70;42.70;;;;;;5090331;28;19949;-90
2022/10/31 13:42:15;;;;;;;;;;;29.90;42.30;;;;;;5091975;28;19952;-91
2022/10/31 13:44:40;;;;;;;;;;;30.20;41.70;;;;;;5088949;28;20031;-90
2022/10/31 13:47:26;;;;;;;;;;;30.20;41.90;;;;;;5088468;28;20047;-90
2022/10/31 13:50:02;;;;;;;;;;;30.60;41.70;;;;;;5094207;28;19950;-90
2022/10/31 13:52:29;;;;;;;;;;;30.60;41.00;;;;;;5095371;28;20003;-90
2022/10/31 13:54:57;;;;;;;;;;;31.10;40.90;;;;;;5096610;28;19958;-90
2022/10/31 13:57:26;;;;;;;;;;;31.20;40.80;;;;;;5095730;28;19999;-90
2022/10/31 13:59:53;;;;;;;;;;;30.60;41.70;;;;;;5092267;28;19954;-91
2022/10/31 14:02:24;;;;;;;;;;;30.80;41.10;;;;;;5094694;28;20003;-90
2022/10/31 14:04:54;;;;;;;;;;;30.90;40.60;;;;;;5092820;28;19998;-91
2022/10/31 14:07:22;;;;;;;;;;;31.30;40.30;;;;;;5092845;28;19939;-91
2022/10/31 14:09:52;;;;;;;;;;;31.90;39.10;;;;;;5092021;28;20044;-90
2022/10/31 14:12:25;;;;;;;;;;;31.80;38.00;;;;;;5093768;28;19986;-91
2022/10/31 14:14:53;;;;;;;;;;;31.90;38.60;;;;;;5090102;28;19965;-90
2022/10/31 14:17:21;;;;;;;;;;;32.00;38.50;;;;;;5093700;28;19964;-90
2022/10/31 14:20:00;;;;;;;;;;;31.70;38.80;;;;;;5094808;28;20012;-91
2022/10/31 14:22:29;;;;;;;;;;;31.70;38.80;;;;;;5090962;28;19966;-90
2022/10/31 14:24:54;;;;;;;;;;;31.70;38.70;;;;;;5093595;28;19972;-90
2022/10/31 14:27:21;;;;;;;;;;;31.40;39.40;;;;;;5091133;28;19992;-90